sensor_id;sensor_type;location;lat;lon;timestamp;P1;durP1;ratioP1;P2;durP2;ratioP2
1725;SDS011;41776;48.260;8.928;2023-07-30T00:01:59;4.43;;;2.25;;
1725;SDS011;41776;48.260;8.928;2023-07-30T00:04:25;2.63;;;1.92;;
1725;SDS011;41776;48.260;8.928;2023-07-30T00:06:52;3.90;;;2.50;;
1725;SDS011;41776;48.260;8.928;2023-07-30T00:09:18;3.25;;;2.22;;
1725;SDS011;41776;48.260;8.928;2023-07-30T00:11:45;4.93;;;2.55;;
1725;SDS011;41776;48.260;8.928;2023-07-30T00:14:13;4.28;;;2.38;;
1725;SDS011;41776;48.260;8.928;2023-07-30T00:16:39;3.78;;;2.40;;
1725;SDS011;41776;48.260;8.928;2023-07-30T00:19:06;3.20;;;2.05;;
1725;SDS011;41776;48.260;8.928;2023-07-30T00:21:32;2.58;;;1.98;;
1725;SDS011;41776;48.260;8.928;2023-07-30T00:23:59;2.85;;;1.85;;
1725;SDS011;41776;48.260;8.928;2023-07-30T00:26:25;3.05;;;1.77;;
1725;SDS011;41776;48.260;8.928;2023-07-30T00:28:53;4.43;;;2.00;;
1725;SDS011;41776;48.260;8.928;2023-07-30T00:31:21;3.85;;;1.77;;
1725;SDS011;41776;48.260;8.928;2023-07-30T00:33:48;3.78;;;1.75;;
1725;SDS011;41776;48.260;8.928;2023-07-30T00:36:14;3.28;;;2.50;;
1725;SDS011;41776;48.260;8.928;2023-07-30T00:38:41;2.97;;;2.33;;
1725;SDS011;41776;48.260;8.928;2023-07-30T00:41:07;3.53;;;2.35;;
1725;SDS011;41776;48.260;8.928;2023-07-30T00:43:34;3.63;;;1.88;;
1725;SDS011;41776;48.260;8.928;2023-07-30T00:46:00;6.78;;;3.17;;
1725;SDS011;41776;48.260;8.928;2023-07-30T00:48:29;3.08;;;2.15;;
1725;SDS011;41776;48.260;8.928;2023-07-30T00:50:56;3.33;;;2.55;;
1725;SDS011;41776;48.260;8.928;2023-07-30T00:53:23;3.85;;;2.50;;
1725;SDS011;41776;48.260;8.928;2023-07-30T00:55:52;4.32;;;2.60;;
1725;SDS011;41776;48.260;8.928;2023-07-30T00:58:21;2.30;;;1.98;;
1725;SDS011;41776;48.260;8.928;2023-07-30T01:00:49;7.20;;;2.67;;
1725;SDS011;41776;48.260;8.928;2023-07-30T01:03:17;2.33;;;1.90;;
1725;SDS011;41776;48.260;8.928;2023-07-30T01:05:45;3.15;;;2.08;;
1725;SDS011;41776;48.260;8.928;2023-07-30T01:08:12;2.95;;;2.28;;
1725;SDS011;41776;48.260;8.928;2023-07-30T01:10:38;2.58;;;1.98;;
1725;SDS011;41776;48.260;8.928;2023-07-30T01:13:07;8.00;;;2.20;;
1725;SDS011;41776;48.260;8.928;2023-07-30T01:15:34;3.20;;;2.33;;
1725;SDS011;41776;48.260;8.928;2023-07-30T01:18:02;3.33;;;2.40;;
1725;SDS011;41776;48.260;8.928;2023-07-30T01:20:29;2.65;;;1.83;;
1725;SDS011;41776;48.260;8.928;2023-07-30T01:22:57;4.95;;;2.20;;
1725;SDS011;41776;48.260;8.928;2023-07-30T01:25:24;3.13;;;2.00;;
1725;SDS011;41776;48.260;8.928;2023-07-30T01:27:54;3.60;;;2.17;;
1725;SDS011;41776;48.260;8.928;2023-07-30T01:30:25;3.58;;;2.15;;
1725;SDS011;41776;48.260;8.928;2023-07-30T01:32:53;2.78;;;2.28;;
1725;SDS011;41776;48.260;8.928;2023-07-30T01:35:22;3.42;;;2.00;;
1725;SDS011;41776;48.260;8.928;2023-07-30T01:37:53;3.15;;;1.98;;
1725;SDS011;41776;48.260;8.928;2023-07-30T01:40:21;12.13;;;1.95;;
1725;SDS011;41776;48.260;8.928;2023-07-30T01:42:48;4.40;;;1.60;;
1725;SDS011;41776;48.260;8.928;2023-07-30T01:45:15;3.05;;;1.98;;
1725;SDS011;41776;48.260;8.928;2023-07-30T01:47:42;3.55;;;2.10;;
1725;SDS011;41776;48.260;8.928;2023-07-30T01:50:08;3.13;;;1.83;;
1725;SDS011;41776;48.260;8.928;2023-07-30T01:52:36;3.00;;;1.90;;
1725;SDS011;41776;48.260;8.928;2023-07-30T01:55:03;2.53;;;1.65;;
1725;SDS011;41776;48.260;8.928;2023-07-30T01:57:31;2.70;;;1.80;;
1725;SDS011;41776;48.260;8.928;2023-07-30T01:59:57;4.05;;;2.10;;
1725;SDS011;41776;48.260;8.928;2023-07-30T02:02:24;3.33;;;1.90;;
1725;SDS011;41776;48.260;8.928;2023-07-30T02:04:51;2.33;;;1.80;;
1725;SDS011;41776;48.260;8.928;2023-07-30T02:07:17;1.75;;;1.60;;
1725;SDS011;41776;48.260;8.928;2023-07-30T02:09:44;3.30;;;2.13;;
1725;SDS011;41776;48.260;8.928;2023-07-30T02:12:10;4.03;;;1.75;;
1725;SDS011;41776;48.260;8.928;2023-07-30T02:14:38;4.13;;;2.08;;
1725;SDS011;41776;48.260;8.928;2023-07-30T02:17:05;3.03;;;1.65;;
1725;SDS011;41776;48.260;8.928;2023-07-30T02:19:31;4.65;;;2.20;;
1725;SDS011;41776;48.260;8.928;2023-07-30T02:21:58;3.10;;;2.20;;
1725;SDS011;41776;48.260;8.928;2023-07-30T02:24:24;2.80;;;2.10;;
1725;SDS011;41776;48.260;8.928;2023-07-30T02:26:51;2.65;;;2.00;;
1725;SDS011;41776;48.260;8.928;2023-07-30T02:29:17;4.45;;;2.15;;
1725;SDS011;41776;48.260;8.928;2023-07-30T02:31:45;2.97;;;1.80;;
1725;SDS011;41776;48.260;8.928;2023-07-30T02:34:12;2.55;;;1.80;;
1725;SDS011;41776;48.260;8.928;2023-07-30T02:36:38;4.95;;;2.10;;
1725;SDS011;41776;48.260;8.928;2023-07-30T02:39:05;2.75;;;2.00;;
1725;SDS011;41776;48.260;8.928;2023-07-30T02:41:31;2.63;;;2.13;;
1725;SDS011;41776;48.260;8.928;2023-07-30T02:43:58;3.42;;;2.35;;
1725;SDS011;41776;48.260;8.928;2023-07-30T02:46:25;2.95;;;2.00;;
1725;SDS011;41776;48.260;8.928;2023-07-30T02:48:52;3.88;;;1.83;;
1725;SDS011;41776;48.260;8.928;2023-07-30T02:51:19;3.83;;;2.00;;
1725;SDS011;41776;48.260;8.928;2023-07-30T02:53:45;2.35;;;1.65;;
1725;SDS011;41776;48.260;8.928;2023-07-30T02:56:19;3.63;;;1.83;;
1725;SDS011;41776;48.260;8.928;2023-07-30T02:58:46;5.55;;;2.10;;
1725;SDS011;41776;48.260;8.928;2023-07-30T03:01:12;3.35;;;1.80;;
1725;SDS011;41776;48.260;8.928;2023-07-30T03:03:39;3.42;;;1.83;;
1725;SDS011;41776;48.260;8.928;2023-07-30T03:06:07;6.30;;;2.33;;
1725;SDS011;41776;48.260;8.928;2023-07-30T03:08:34;4.75;;;2.00;;
1725;SDS011;41776;48.260;8.928;2023-07-30T03:11:02;4.57;;;2.10;;
1725;SDS011;41776;48.260;8.928;2023-07-30T03:13:28;3.88;;;1.88;;
1725;SDS011;41776;48.260;8.928;2023-07-30T03:15:55;4.50;;;2.38;;
1725;SDS011;41776;48.260;8.928;2023-07-30T03:18:21;3.47;;;2.33;;
1725;SDS011;41776;48.260;8.928;2023-07-30T03:20:49;3.67;;;2.10;;
1725;SDS011;41776;48.260;8.928;2023-07-30T03:23:17;2.78;;;1.90;;
1725;SDS011;41776;48.260;8.928;2023-07-30T03:25:44;2.78;;;2.10;;
1725;SDS011;41776;48.260;8.928;2023-07-30T03:28:10;2.90;;;2.00;;
1725;SDS011;41776;48.260;8.928;2023-07-30T03:30:37;8.60;;;2.35;;
1725;SDS011;41776;48.260;8.928;2023-07-30T03:33:03;2.58;;;1.92;;
1725;SDS011;41776;48.260;8.928;2023-07-30T03:35:30;2.83;;;2.20;;
1725;SDS011;41776;48.260;8.928;2023-07-30T03:37:58;2.47;;;1.90;;
1725;SDS011;41776;48.260;8.928;2023-07-30T03:40:26;4.10;;;2.45;;
1725;SDS011;41776;48.260;8.928;2023-07-30T03:42:53;3.55;;;2.20;;
1725;SDS011;41776;48.260;8.928;2023-07-30T03:45:22;3.83;;;2.10;;
1725;SDS011;41776;48.260;8.928;2023-07-30T03:47:48;6.00;;;1.85;;
1725;SDS011;41776;48.260;8.928;2023-07-30T03:50:15;2.75;;;2.00;;
1725;SDS011;41776;48.260;8.928;2023-07-30T03:52:41;4.30;;;1.80;;
1725;SDS011;41776;48.260;8.928;2023-07-30T03:55:08;5.20;;;1.77;;
1725;SDS011;41776;48.260;8.928;2023-07-30T03:57:36;4.15;;;2.17;;
1725;SDS011;41776;48.260;8.928;2023-07-30T04:00:03;3.97;;;1.60;;
1725;SDS011;41776;48.260;8.928;2023-07-30T04:02:31;2.83;;;1.85;;
1725;SDS011;41776;48.260;8.928;2023-07-30T04:04:57;2.85;;;1.88;;
1725;SDS011;41776;48.260;8.928;2023-07-30T04:07:24;2.97;;;1.77;;
1725;SDS011;41776;48.260;8.928;2023-07-30T04:09:50;4.63;;;1.98;;
1725;SDS011;41776;48.260;8.928;2023-07-30T04:12:17;2.17;;;1.58;;
1725;SDS011;41776;48.260;8.928;2023-07-30T04:14:48;8.77;;;2.40;;
1725;SDS011;41776;48.260;8.928;2023-07-30T04:17:14;2.60;;;2.08;;
1725;SDS011;41776;48.260;8.928;2023-07-30T04:19:41;2.95;;;1.90;;
1725;SDS011;41776;48.260;8.928;2023-07-30T04:22:07;3.67;;;2.03;;
1725;SDS011;41776;48.260;8.928;2023-07-30T04:24:34;3.75;;;2.00;;
1725;SDS011;41776;48.260;8.928;2023-07-30T04:27:00;2.72;;;2.13;;
1725;SDS011;41776;48.260;8.928;2023-07-30T04:29:27;2.45;;;1.85;;
1725;SDS011;41776;48.260;8.928;2023-07-30T04:31:56;3.08;;;1.80;;
1725;SDS011;41776;48.260;8.928;2023-07-30T04:34:22;4.57;;;2.33;;
1725;SDS011;41776;48.260;8.928;2023-07-30T04:36:49;4.95;;;2.25;;
1725;SDS011;41776;48.260;8.928;2023-07-30T04:39:15;3.47;;;2.15;;
1725;SDS011;41776;48.260;8.928;2023-07-30T04:41:42;4.00;;;2.10;;
1725;SDS011;41776;48.260;8.928;2023-07-30T04:44:08;5.18;;;1.98;;
1725;SDS011;41776;48.260;8.928;2023-07-30T04:46:35;3.13;;;2.10;;
1725;SDS011;41776;48.260;8.928;2023-07-30T04:49:03;5.65;;;2.03;;
1725;SDS011;41776;48.260;8.928;2023-07-30T04:51:30;2.88;;;2.00;;
1725;SDS011;41776;48.260;8.928;2023-07-30T04:53:56;3.75;;;2.05;;
1725;SDS011;41776;48.260;8.928;2023-07-30T04:56:23;8.88;;;2.00;;
1725;SDS011;41776;48.260;8.928;2023-07-30T04:58:51;5.75;;;2.55;;
1725;SDS011;41776;48.260;8.928;2023-07-30T05:01:18;2.85;;;2.00;;
1725;SDS011;41776;48.260;8.928;2023-07-30T05:03:44;4.68;;;2.33;;
1725;SDS011;41776;48.260;8.928;2023-07-30T05:06:12;3.25;;;2.40;;
1725;SDS011;41776;48.260;8.928;2023-07-30T05:08:38;2.63;;;1.88;;
1725;SDS011;41776;48.260;8.928;2023-07-30T05:11:05;3.50;;;2.15;;
1725;SDS011;41776;48.260;8.928;2023-07-30T05:13:31;3.15;;;2.03;;
1725;SDS011;41776;48.260;8.928;2023-07-30T05:15:58;3.15;;;2.15;;
1725;SDS011;41776;48.260;8.928;2023-07-30T05:18:24;3.17;;;2.17;;
1725;SDS011;41776;48.260;8.928;2023-07-30T05:20:51;3.60;;;2.10;;
1725;SDS011;41776;48.260;8.928;2023-07-30T05:23:19;4.72;;;2.40;;
1725;SDS011;41776;48.260;8.928;2023-07-30T05:25:46;2.60;;;1.83;;
1725;SDS011;41776;48.260;8.928;2023-07-30T05:28:12;3.78;;;2.10;;
1725;SDS011;41776;48.260;8.928;2023-07-30T05:30:39;3.33;;;2.17;;
1725;SDS011;41776;48.260;8.928;2023-07-30T05:33:05;3.17;;;2.00;;
1725;SDS011;41776;48.260;8.928;2023-07-30T05:35:32;3.92;;;2.38;;
1725;SDS011;41776;48.260;8.928;2023-07-30T05:37:59;5.78;;;2.05;;
1725;SDS011;41776;48.260;8.928;2023-07-30T05:40:26;3.70;;;2.22;;
1725;SDS011;41776;48.260;8.928;2023-07-30T05:42:53;3.05;;;1.80;;
1725;SDS011;41776;48.260;8.928;2023-07-30T05:45:19;3.53;;;1.90;;
1725;SDS011;41776;48.260;8.928;2023-07-30T05:47:46;2.72;;;2.03;;
1725;SDS011;41776;48.260;8.928;2023-07-30T05:50:12;6.35;;;1.50;;
1725;SDS011;41776;48.260;8.928;2023-07-30T05:52:39;2.40;;;1.63;;
1725;SDS011;41776;48.260;8.928;2023-07-30T05:55:05;6.57;;;1.33;;
1725;SDS011;41776;48.260;8.928;2023-07-30T05:57:34;8.13;;;1.23;;
1725;SDS011;41776;48.260;8.928;2023-07-30T06:00:00;2.15;;;1.50;;
1725;SDS011;41776;48.260;8.928;2023-07-30T06:02:27;2.40;;;1.40;;
1725;SDS011;41776;48.260;8.928;2023-07-30T06:04:54;4.57;;;1.38;;
1725;SDS011;41776;48.260;8.928;2023-07-30T06:07:20;3.20;;;1.25;;
1725;SDS011;41776;48.260;8.928;2023-07-30T06:09:47;2.95;;;1.17;;
1725;SDS011;41776;48.260;8.928;2023-07-30T06:12:13;1.67;;;1.10;;
1725;SDS011;41776;48.260;8.928;2023-07-30T06:14:41;2.28;;;1.00;;
1725;SDS011;41776;48.260;8.928;2023-07-30T06:17:08;1.77;;;0.95;;
1725;SDS011;41776;48.260;8.928;2023-07-30T06:19:34;2.05;;;1.25;;
1725;SDS011;41776;48.260;8.928;2023-07-30T06:22:01;2.10;;;1.20;;
1725;SDS011;41776;48.260;8.928;2023-07-30T06:24:27;2.65;;;1.40;;
1725;SDS011;41776;48.260;8.928;2023-07-30T06:26:54;1.80;;;1.10;;
1725;SDS011;41776;48.260;8.928;2023-07-30T06:29:21;1.77;;;1.00;;
1725;SDS011;41776;48.260;8.928;2023-07-30T06:31:48;3.10;;;1.00;;
1725;SDS011;41776;48.260;8.928;2023-07-30T06:34:15;1.65;;;1.10;;
1725;SDS011;41776;48.260;8.928;2023-07-30T06:36:42;2.28;;;1.10;;
1725;SDS011;41776;48.260;8.928;2023-07-30T06:39:08;1.73;;;1.10;;
1725;SDS011;41776;48.260;8.928;2023-07-30T06:41:34;1.15;;;0.90;;
1725;SDS011;41776;48.260;8.928;2023-07-30T06:44:01;2.15;;;1.00;;
1725;SDS011;41776;48.260;8.928;2023-07-30T06:46:28;1.40;;;1.10;;
1725;SDS011;41776;48.260;8.928;2023-07-30T06:48:55;1.20;;;1.10;;
1725;SDS011;41776;48.260;8.928;2023-07-30T06:51:23;2.20;;;1.30;;
1725;SDS011;41776;48.260;8.928;2023-07-30T06:53:50;1.30;;;0.90;;
1725;SDS011;41776;48.260;8.928;2023-07-30T06:56:17;1.98;;;1.13;;
1725;SDS011;41776;48.260;8.928;2023-07-30T06:58:44;1.35;;;1.10;;
1725;SDS011;41776;48.260;8.928;2023-07-30T07:01:10;4.13;;;1.25;;
1725;SDS011;41776;48.260;8.928;2023-07-30T07:03:37;1.30;;;1.00;;
1725;SDS011;41776;48.260;8.928;2023-07-30T07:06:05;1.58;;;0.98;;
1725;SDS011;41776;48.260;8.928;2023-07-30T07:08:31;1.05;;;0.90;;
1725;SDS011;41776;48.260;8.928;2023-07-30T07:10:58;3.85;;;1.25;;
1725;SDS011;41776;48.260;8.928;2023-07-30T07:13:24;1.85;;;1.25;;
1725;SDS011;41776;48.260;8.928;2023-07-30T07:15:51;3.00;;;1.20;;
1725;SDS011;41776;48.260;8.928;2023-07-30T07:18:18;1.73;;;1.10;;
1725;SDS011;41776;48.260;8.928;2023-07-30T07:20:44;1.08;;;0.98;;
1725;SDS011;41776;48.260;8.928;2023-07-30T07:23:12;2.25;;;1.13;;
1725;SDS011;41776;48.260;8.928;2023-07-30T07:25:38;1.85;;;1.00;;
1725;SDS011;41776;48.260;8.928;2023-07-30T07:28:05;2.15;;;0.80;;
1725;SDS011;41776;48.260;8.928;2023-07-30T07:30:33;2.60;;;1.30;;
1725;SDS011;41776;48.260;8.928;2023-07-30T07:33:00;1.85;;;1.20;;
1725;SDS011;41776;48.260;8.928;2023-07-30T07:35:27;1.52;;;1.10;;
1725;SDS011;41776;48.260;8.928;2023-07-30T07:37:53;1.63;;;0.90;;
1725;SDS011;41776;48.260;8.928;2023-07-30T07:40:21;1.17;;;0.98;;
1725;SDS011;41776;48.260;8.928;2023-07-30T07:42:48;2.22;;;1.05;;
1725;SDS011;41776;48.260;8.928;2023-07-30T07:45:14;3.63;;;1.20;;
1725;SDS011;41776;48.260;8.928;2023-07-30T07:47:41;3.40;;;1.13;;
1725;SDS011;41776;48.260;8.928;2023-07-30T07:50:07;2.33;;;1.00;;
1725;SDS011;41776;48.260;8.928;2023-07-30T07:52:34;1.52;;;1.10;;
1725;SDS011;41776;48.260;8.928;2023-07-30T07:55:06;0.88;;;0.70;;
1725;SDS011;41776;48.260;8.928;2023-07-30T07:57:34;2.00;;;1.08;;
1725;SDS011;41776;48.260;8.928;2023-07-30T08:00:13;1.02;;;0.93;;
1725;SDS011;41776;48.260;8.928;2023-07-30T08:02:39;2.00;;;1.20;;
1725;SDS011;41776;48.260;8.928;2023-07-30T08:05:06;1.20;;;1.10;;
1725;SDS011;41776;48.260;8.928;2023-07-30T08:07:33;2.42;;;1.40;;
1725;SDS011;41776;48.260;8.928;2023-07-30T08:09:59;1.83;;;1.05;;
1725;SDS011;41776;48.260;8.928;2023-07-30T08:12:28;1.02;;;0.90;;
1725;SDS011;41776;48.260;8.928;2023-07-30T08:14:58;1.63;;;1.00;;
1725;SDS011;41776;48.260;8.928;2023-07-30T08:17:25;1.88;;;1.30;;
1725;SDS011;41776;48.260;8.928;2023-07-30T08:19:51;2.45;;;1.10;;
1725;SDS011;41776;48.260;8.928;2023-07-30T08:22:29;3.75;;;1.10;;
1725;SDS011;41776;48.260;8.928;2023-07-30T08:24:55;4.18;;;1.10;;
1725;SDS011;41776;48.260;8.928;2023-07-30T08:27:24;1.08;;;0.82;;
1725;SDS011;41776;48.260;8.928;2023-07-30T08:29:53;1.23;;;0.90;;
1725;SDS011;41776;48.260;8.928;2023-07-30T08:32:21;2.17;;;1.00;;
1725;SDS011;41776;48.260;8.928;2023-07-30T08:34:48;2.55;;;0.93;;
1725;SDS011;41776;48.260;8.928;2023-07-30T08:37:14;1.98;;;1.00;;
1725;SDS011;41776;48.260;8.928;2023-07-30T08:39:41;2.00;;;1.30;;
1725;SDS011;41776;48.260;8.928;2023-07-30T08:42:10;1.20;;;0.88;;
1725;SDS011;41776;48.260;8.928;2023-07-30T08:44:36;3.72;;;0.98;;
1725;SDS011;41776;48.260;8.928;2023-07-30T08:47:07;1.10;;;0.80;;
1725;SDS011;41776;48.260;8.928;2023-07-30T08:49:36;1.02;;;0.80;;
1725;SDS011;41776;48.260;8.928;2023-07-30T08:52:03;1.90;;;1.00;;
1725;SDS011;41776;48.260;8.928;2023-07-30T08:54:33;2.05;;;1.08;;
1725;SDS011;41776;48.260;8.928;2023-07-30T08:57:01;1.95;;;1.10;;
1725;SDS011;41776;48.260;8.928;2023-07-30T08:59:29;3.00;;;1.13;;
1725;SDS011;41776;48.260;8.928;2023-07-30T09:01:59;1.52;;;1.00;;
1725;SDS011;41776;48.260;8.928;2023-07-30T09:04:26;1.88;;;1.10;;
1725;SDS011;41776;48.260;8.928;2023-07-30T09:06:58;2.20;;;0.90;;
1725;SDS011;41776;48.260;8.928;2023-07-30T09:09:26;2.38;;;1.13;;
1725;SDS011;41776;48.260;8.928;2023-07-30T09:11:52;1.42;;;0.90;;
1725;SDS011;41776;48.260;8.928;2023-07-30T09:14:19;1.30;;;0.70;;
1725;SDS011;41776;48.260;8.928;2023-07-30T09:16:50;2.47;;;1.00;;
1725;SDS011;41776;48.260;8.928;2023-07-30T09:19:22;1.50;;;1.10;;
1725;SDS011;41776;48.260;8.928;2023-07-30T09:21:52;1.52;;;1.00;;
1725;SDS011;41776;48.260;8.928;2023-07-30T09:24:21;4.33;;;1.10;;
1725;SDS011;41776;48.260;8.928;2023-07-30T09:26:48;1.40;;;1.20;;
1725;SDS011;41776;48.260;8.928;2023-07-30T09:29:15;1.95;;;1.10;;
1725;SDS011;41776;48.260;8.928;2023-07-30T09:31:49;6.03;;;1.00;;
1725;SDS011;41776;48.260;8.928;2023-07-30T09:34:21;1.98;;;1.10;;
1725;SDS011;41776;48.260;8.928;2023-07-30T09:36:50;2.75;;;1.00;;
1725;SDS011;41776;48.260;8.928;2023-07-30T09:39:22;1.88;;;0.90;;
1725;SDS011;41776;48.260;8.928;2023-07-30T09:41:51;4.47;;;0.90;;
1725;SDS011;41776;48.260;8.928;2023-07-30T09:44:25;1.48;;;1.05;;
1725;SDS011;41776;48.260;8.928;2023-07-30T09:46:52;2.67;;;1.67;;
1725;SDS011;41776;48.260;8.928;2023-07-30T09:49:18;1.65;;;1.00;;
1725;SDS011;41776;48.260;8.928;2023-07-30T09:51:45;1.85;;;1.15;;
1725;SDS011;41776;48.260;8.928;2023-07-30T09:54:13;2.03;;;1.02;;
1725;SDS011;41776;48.260;8.928;2023-07-30T09:56:41;2.00;;;1.00;;
1725;SDS011;41776;48.260;8.928;2023-07-30T09:59:11;1.88;;;0.90;;
1725;SDS011;41776;48.260;8.928;2023-07-30T10:01:41;4.45;;;0.98;;
1725;SDS011;41776;48.260;8.928;2023-07-30T10:04:10;4.22;;;1.30;;
1725;SDS011;41776;48.260;8.928;2023-07-30T10:06:38;1.60;;;1.10;;
1725;SDS011;41776;48.260;8.928;2023-07-30T10:09:08;4.78;;;1.00;;
1725;SDS011;41776;48.260;8.928;2023-07-30T10:11:38;3.53;;;0.95;;
1725;SDS011;41776;48.260;8.928;2023-07-30T10:14:09;1.23;;;1.13;;
1725;SDS011;41776;48.260;8.928;2023-07-30T10:16:36;1.58;;;1.10;;
1725;SDS011;41776;48.260;8.928;2023-07-30T10:19:03;1.90;;;1.20;;
1725;SDS011;41776;48.260;8.928;2023-07-30T10:21:31;2.20;;;1.20;;
1725;SDS011;41776;48.260;8.928;2023-07-30T10:23:59;2.20;;;1.20;;
1725;SDS011;41776;48.260;8.928;2023-07-30T10:26:27;5.00;;;1.17;;
1725;SDS011;41776;48.260;8.928;2023-07-30T10:31:38;2.17;;;1.10;;
1725;SDS011;41776;48.260;8.928;2023-07-30T10:34:06;1.70;;;1.08;;
1725;SDS011;41776;48.260;8.928;2023-07-30T10:36:36;1.63;;;1.00;;
1725;SDS011;41776;48.260;8.928;2023-07-30T10:39:11;2.35;;;1.20;;
1725;SDS011;41776;48.260;8.928;2023-07-30T10:41:39;1.98;;;1.10;;
1725;SDS011;41776;48.260;8.928;2023-07-30T10:44:06;2.17;;;1.17;;
1725;SDS011;41776;48.260;8.928;2023-07-30T10:46:34;1.98;;;1.10;;
1725;SDS011;41776;48.260;8.928;2023-07-30T10:49:03;2.72;;;1.15;;
1725;SDS011;41776;48.260;8.928;2023-07-30T10:51:31;1.85;;;1.10;;
1725;SDS011;41776;48.260;8.928;2023-07-30T10:53:57;1.77;;;1.10;;
1725;SDS011;41776;48.260;8.928;2023-07-30T10:56:26;1.52;;;1.17;;
1725;SDS011;41776;48.260;8.928;2023-07-30T10:58:52;1.67;;;1.20;;
1725;SDS011;41776;48.260;8.928;2023-07-30T11:01:20;1.45;;;1.00;;
1725;SDS011;41776;48.260;8.928;2023-07-30T11:03:53;1.35;;;1.00;;
1725;SDS011;41776;48.260;8.928;2023-07-30T11:06:28;2.33;;;1.17;;
1725;SDS011;41776;48.260;8.928;2023-07-30T11:08:55;2.78;;;1.17;;
1725;SDS011;41776;48.260;8.928;2023-07-30T11:11:21;1.25;;;0.90;;
1725;SDS011;41776;48.260;8.928;2023-07-30T11:13:55;1.98;;;1.17;;
1725;SDS011;41776;48.260;8.928;2023-07-30T11:16:26;1.52;;;1.08;;
1725;SDS011;41776;48.260;8.928;2023-07-30T11:18:58;2.05;;;1.23;;
1725;SDS011;41776;48.260;8.928;2023-07-30T11:21:25;2.20;;;1.15;;
1725;SDS011;41776;48.260;8.928;2023-07-30T11:23:52;1.35;;;1.00;;
1725;SDS011;41776;48.260;8.928;2023-07-30T11:26:21;3.08;;;1.20;;
1725;SDS011;41776;48.260;8.928;2023-07-30T11:28:48;1.83;;;0.95;;
1725;SDS011;41776;48.260;8.928;2023-07-30T11:31:15;2.38;;;1.15;;
1725;SDS011;41776;48.260;8.928;2023-07-30T11:33:44;1.50;;;1.05;;
1725;SDS011;41776;48.260;8.928;2023-07-30T11:36:14;3.50;;;1.38;;
1725;SDS011;41776;48.260;8.928;2023-07-30T11:38:45;1.58;;;1.23;;
1725;SDS011;41776;48.260;8.928;2023-07-30T11:41:15;2.15;;;1.35;;
1725;SDS011;41776;48.260;8.928;2023-07-30T11:43:47;1.77;;;1.08;;
1725;SDS011;41776;48.260;8.928;2023-07-30T11:46:14;1.58;;;1.05;;
1725;SDS011;41776;48.260;8.928;2023-07-30T11:48:48;1.73;;;1.10;;
1725;SDS011;41776;48.260;8.928;2023-07-30T11:51:21;2.05;;;1.23;;
1725;SDS011;41776;48.260;8.928;2023-07-30T11:53:49;2.67;;;1.30;;
1725;SDS011;41776;48.260;8.928;2023-07-30T11:56:20;1.55;;;1.23;;
1725;SDS011;41776;48.260;8.928;2023-07-30T11:58:48;1.50;;;0.85;;
1725;SDS011;41776;48.260;8.928;2023-07-30T12:01:17;1.70;;;1.17;;
1725;SDS011;41776;48.260;8.928;2023-07-30T12:03:44;1.65;;;1.13;;
1725;SDS011;41776;48.260;8.928;2023-07-30T12:06:12;3.72;;;1.73;;
1725;SDS011;41776;48.260;8.928;2023-07-30T12:08:40;3.08;;;1.27;;
1725;SDS011;41776;48.260;8.928;2023-07-30T12:11:07;1.45;;;1.13;;
1725;SDS011;41776;48.260;8.928;2023-07-30T12:13:41;1.23;;;1.00;;
1725;SDS011;41776;48.260;8.928;2023-07-30T12:16:12;3.03;;;1.27;;
1725;SDS011;41776;48.260;8.928;2023-07-30T12:18:45;2.67;;;1.40;;
1725;SDS011;41776;48.260;8.928;2023-07-30T12:21:14;2.33;;;1.30;;
1725;SDS011;41776;48.260;8.928;2023-07-30T12:23:42;1.50;;;1.10;;
1725;SDS011;41776;48.260;8.928;2023-07-30T12:26:12;1.45;;;1.08;;
1725;SDS011;41776;48.260;8.928;2023-07-30T12:28:42;4.20;;;1.52;;
1725;SDS011;41776;48.260;8.928;2023-07-30T12:31:11;1.65;;;1.17;;
1725;SDS011;41776;48.260;8.928;2023-07-30T12:33:38;3.72;;;1.48;;
1725;SDS011;41776;48.260;8.928;2023-07-30T12:36:14;2.15;;;1.20;;
1725;SDS011;41776;48.260;8.928;2023-07-30T12:38:42;7.90;;;1.45;;
1725;SDS011;41776;48.260;8.928;2023-07-30T12:41:08;2.00;;;1.40;;
1725;SDS011;41776;48.260;8.928;2023-07-30T12:43:35;1.95;;;1.20;;
1725;SDS011;41776;48.260;8.928;2023-07-30T12:46:02;1.88;;;1.20;;
1725;SDS011;41776;48.260;8.928;2023-07-30T12:48:31;2.28;;;1.20;;
1725;SDS011;41776;48.260;8.928;2023-07-30T12:51:00;2.78;;;1.20;;
1725;SDS011;41776;48.260;8.928;2023-07-30T12:53:26;2.65;;;1.30;;
1725;SDS011;41776;48.260;8.928;2023-07-30T12:55:54;2.00;;;1.30;;
1725;SDS011;41776;48.260;8.928;2023-07-30T12:58:21;1.67;;;1.20;;
1725;SDS011;41776;48.260;8.928;2023-07-30T13:00:49;1.88;;;1.23;;
1725;SDS011;41776;48.260;8.928;2023-07-30T13:03:17;2.85;;;1.20;;
1725;SDS011;41776;48.260;8.928;2023-07-30T13:05:43;2.50;;;1.08;;
1725;SDS011;41776;48.260;8.928;2023-07-30T13:08:10;1.20;;;1.00;;
1725;SDS011;41776;48.260;8.928;2023-07-30T13:10:37;2.45;;;1.42;;
1725;SDS011;41776;48.260;8.928;2023-07-30T13:13:04;2.35;;;1.20;;
1725;SDS011;41776;48.260;8.928;2023-07-30T13:15:31;4.35;;;1.30;;
1725;SDS011;41776;48.260;8.928;2023-07-30T13:18:01;2.22;;;1.30;;
1725;SDS011;41776;48.260;8.928;2023-07-30T13:20:28;3.75;;;1.33;;
1725;SDS011;41776;48.260;8.928;2023-07-30T13:22:56;3.55;;;1.23;;
1725;SDS011;41776;48.260;8.928;2023-07-30T13:25:22;3.67;;;1.27;;
1725;SDS011;41776;48.260;8.928;2023-07-30T13:27:49;1.63;;;1.10;;
1725;SDS011;41776;48.260;8.928;2023-07-30T13:30:20;2.58;;;1.25;;
1725;SDS011;41776;48.260;8.928;2023-07-30T13:32:49;2.08;;;1.33;;
1725;SDS011;41776;48.260;8.928;2023-07-30T13:35:17;1.85;;;1.15;;
1725;SDS011;41776;48.260;8.928;2023-07-30T13:37:49;2.20;;;1.60;;
1725;SDS011;41776;48.260;8.928;2023-07-30T13:40:16;2.67;;;1.50;;
1725;SDS011;41776;48.260;8.928;2023-07-30T13:42:42;1.90;;;1.27;;
1725;SDS011;41776;48.260;8.928;2023-07-30T13:45:14;3.75;;;1.08;;
1725;SDS011;41776;48.260;8.928;2023-07-30T13:47:42;3.42;;;1.60;;
1725;SDS011;41776;48.260;8.928;2023-07-30T13:50:10;2.10;;;1.35;;
1725;SDS011;41776;48.260;8.928;2023-07-30T13:52:36;3.03;;;1.38;;
1725;SDS011;41776;48.260;8.928;2023-07-30T13:55:03;1.50;;;1.30;;
1725;SDS011;41776;48.260;8.928;2023-07-30T13:57:30;2.40;;;1.55;;
1725;SDS011;41776;48.260;8.928;2023-07-30T13:59:57;3.88;;;1.20;;
1725;SDS011;41776;48.260;8.928;2023-07-30T14:02:25;2.10;;;1.33;;
1725;SDS011;41776;48.260;8.928;2023-07-30T14:05:01;1.58;;;0.98;;
1725;SDS011;41776;48.260;8.928;2023-07-30T14:07:28;3.97;;;1.42;;
1725;SDS011;41776;48.260;8.928;2023-07-30T14:09:54;1.88;;;1.25;;
1725;SDS011;41776;48.260;8.928;2023-07-30T14:12:21;3.28;;;1.05;;
1725;SDS011;41776;48.260;8.928;2023-07-30T14:14:47;1.98;;;1.23;;
1725;SDS011;41776;48.260;8.928;2023-07-30T14:17:17;3.05;;;1.20;;
1725;SDS011;41776;48.260;8.928;2023-07-30T14:19:43;4.32;;;1.52;;
1725;SDS011;41776;48.260;8.928;2023-07-30T14:22:17;3.22;;;1.50;;
1725;SDS011;41776;48.260;8.928;2023-07-30T14:24:46;3.47;;;1.30;;
1725;SDS011;41776;48.260;8.928;2023-07-30T14:27:12;6.47;;;1.75;;
1725;SDS011;41776;48.260;8.928;2023-07-30T14:29:40;4.07;;;1.35;;
1725;SDS011;41776;48.260;8.928;2023-07-30T14:32:09;2.65;;;1.13;;
1725;SDS011;41776;48.260;8.928;2023-07-30T14:34:35;2.38;;;1.30;;
1725;SDS011;41776;48.260;8.928;2023-07-30T14:37:02;1.73;;;1.10;;
1725;SDS011;41776;48.260;8.928;2023-07-30T14:39:30;7.57;;;1.20;;
1725;SDS011;41776;48.260;8.928;2023-07-30T14:41:56;3.03;;;1.30;;
1725;SDS011;41776;48.260;8.928;2023-07-30T14:44:23;2.17;;;1.25;;
1725;SDS011;41776;48.260;8.928;2023-07-30T14:46:50;2.08;;;1.15;;
1725;SDS011;41776;48.260;8.928;2023-07-30T14:49:25;2.05;;;0.98;;
1725;SDS011;41776;48.260;8.928;2023-07-30T14:51:51;2.80;;;1.10;;
1725;SDS011;41776;48.260;8.928;2023-07-30T14:54:19;3.92;;;1.25;;
1725;SDS011;41776;48.260;8.928;2023-07-30T14:56:47;1.65;;;1.00;;
1725;SDS011;41776;48.260;8.928;2023-07-30T14:59:14;2.63;;;1.10;;
1725;SDS011;41776;48.260;8.928;2023-07-30T15:01:45;3.70;;;1.38;;
1725;SDS011;41776;48.260;8.928;2023-07-30T15:04:12;2.38;;;1.40;;
1725;SDS011;41776;48.260;8.928;2023-07-30T15:06:39;1.50;;;1.08;;